| time (UTC) | temp F | wind direction | speed knots | gust knots | rain 1hr in | rain 24hr in | rain mn in | humidity % | barometer mb |
| 20260906183037 | 83 | 228 | 0.0 | 4.3 | 0.14 | 0.14 | 0.14 | 72 | 1011.1 |
| 20260906181543 | 90 | 85 | 1.7 | 13.0 | 0.08 | 0.08 | 0.08 | 61 | 1011.9 |
| 20260906180037 | 102 | 222 | 0.0 | 0.9 | 0.00 | 0.00 | 0.00 | 37 | 1011.5 |
| 20260906174532 | 103 | 73 | 0.0 | 1.7 | 0.00 | 0.00 | 0.00 | 37 | 1011.8 |
| 20260906173032 | 105 | 243 | 0.0 | 3.5 | 0.00 | 0.00 | 0.00 | 35 | 1012.2 |
| 20260906171531 | 104 | 243 | 0.0 | 2.6 | 0.00 | 0.00 | 0.00 | 37 | 1012.3 |
| 20260906170030 | 103 | 61 | 0.9 | 3.5 | 0.00 | 0.00 | 0.00 | 38 | 1012.6 |
| 20260906164525 | 101 | 215 | 0.0 | 2.6 | 0.00 | 0.00 | 0.00 | 39 | 1012.7 |
| 20260906163029 | 100 | 126 | 0.0 | 4.3 | 0.00 | 0.00 | 0.00 | 41 | 1012.8 |
| 20260906161520 | 100 | 120 | 0.9 | 3.5 | 0.00 | 0.00 | 0.00 | 44 | 1012.8 |
| 20260906160016 | 99 | 88 | 0.9 | 5.2 | 0.00 | 0.00 | 0.00 | 44 | 1012.9 |
| 20260906154512 | 98 | 101 | 0.0 | 2.6 | 0.00 | 0.00 | 0.00 | 49 | 1012.8 |
| 20260906153010 | 97 | 141 | 0.0 | 4.3 | 0.00 | 0.00 | 0.00 | 49 | 1012.7 |
| 20260906151508 | 96 | 230 | 0.0 | 0.9 | 0.00 | 0.00 | 0.00 | 52 | 1012.7 |
| 20260906150004 | 94 | 230 | 0.0 | 1.7 | 0.00 | 0.00 | 0.00 | 54 | 1012.8 |
| 20260906144606 | 92 | 230 | 0.0 | 1.7 | 0.00 | 0.00 | 0.00 | 55 | 1012.8 |
| 20260906143101 | 89 | 238 | 0.0 | 2.6 | 0.00 | 0.00 | 0.00 | 58 | 1012.7 |
| 20260906141556 | 88 | 242 | 0.0 | 1.7 | 0.00 | 0.00 | 0.00 | 61 | 1012.8 |
| 20260906140054 | 88 | 255 | 0.0 | 1.7 | 0.00 | 0.00 | 0.00 | 61 | 1012.7 |
| 20260906134552 | 87 | 232 | 0.0 | 0.9 | 0.00 | 0.00 | 0.00 | 67 | 1012.7 |
| 20260906133052 | 85 | 232 | 0.0 | 0.9 | 0.00 | 0.00 | 0.00 | 71 | 1012.7 |
| 20260906131541 | 80 | 232 | 0.0 | 0.9 | 0.00 | 0.00 | 0.00 | 78 | 1012.4 |
| 20260906130040 | 76 | 100 | 0.0 | 0.0 | 0.00 | 0.00 | 0.00 | 82 | 1012.2 |
| 20260906124537 | 73 | 101 | 0.0 | 0.0 | 0.00 | 0.00 | 0.00 | 85 | 1012.0 |
| 20260906123040 | 72 | 101 | 0.0 | 0.0 | 0.00 | 0.00 | 0.00 | 85 | 1011.9 |
| 20260906121543 | 71 | 101 | 0.0 | 0.0 | 0.00 | 0.00 | 0.00 | 84 | 1011.8 |
| 20260906120033 | 71 | 101 | 0.0 | 0.0 | 0.00 | 0.00 | 0.00 | 85 | 1011.5 |
| 20260906114537 | 71 | 101 | 0.0 | 0.0 | 0.00 | 0.00 | 0.00 | 83 | 1011.3 |
| 20260906113029 | 72 | 101 | 0.0 | 0.0 | 0.00 | 0.00 | 0.00 | 82 | 1011.4 |
| 20260906111532 | 73 | 101 | 0.0 | 0.0 | 0.00 | 0.00 | 0.00 | 81 | 1011.4 |
| 20260906110024 | 73 | 101 | 0.0 | 0.0 | 0.00 | 0.00 | 0.00 | 80 | 1011.4 |
| 20260906104521 | 74 | 101 | 0.0 | 0.0 | 0.00 | 0.00 | 0.00 | 80 | 1011.3 |
| 20260906103021 | 74 | 101 | 0.0 | 0.0 | 0.00 | 0.00 | 0.00 | 80 | 1011.2 |
| 20260906101521 | 74 | 101 | 0.0 | 0.0 | 0.00 | 0.00 | 0.00 | 80 | 1011.2 |
| 20260906100018 | 74 | 101 | 0.0 | 0.0 | 0.00 | 0.00 | 0.00 | 79 | 1011.0 |
| 20260906094516 | 74 | 101 | 0.0 | 0.0 | 0.00 | 0.00 | 0.00 | 79 | 1010.9 |
| 20260906093032 | 75 | 101 | 0.0 | 0.0 | 0.00 | 0.00 | 0.00 | 78 | 1010.9 |
| 20260906091518 | 75 | 101 | 0.0 | 0.9 | 0.00 | 0.00 | 0.00 | 78 | 1011.0 |
| 20260906090012 | 76 | 100 | 0.0 | 0.0 | 0.00 | 0.00 | 0.00 | 77 | 1010.9 |
| 20260906084508 | 77 | 101 | 0.0 | 0.0 | 0.00 | 0.00 | 0.00 | 75 | 1010.7 |
| 20260906083008 | 77 | 101 | 0.0 | 0.9 | 0.00 | 0.00 | 0.00 | 75 | 1010.7 |
| 20260906081506 | 77 | 101 | 0.0 | 0.9 | 0.00 | 0.00 | 0.00 | 74 | 1010.7 |
| 20260906080006 | 77 | 101 | 0.0 | 0.9 | 0.00 | 0.00 | 0.00 | 74 | 1010.6 |
| 20260906074505 | 77 | 101 | 0.0 | 0.0 | 0.00 | 0.00 | 0.00 | 73 | 1010.6 |
| 20260906073008 | 78 | 101 | 0.0 | 0.0 | 0.00 | 0.00 | 0.00 | 72 | 1010.5 |
| 20260906071505 | 78 | 101 | 0.0 | 0.0 | 0.00 | 0.00 | 0.00 | 71 | 1010.7 |
| 20260906070002 | 79 | 101 | 0.0 | 0.9 | 0.00 | 0.00 | 0.00 | 71 | 1010.7 |
| 20260906064501 | 78 | 101 | 0.0 | 0.9 | 0.00 | 0.00 | 0.00 | 72 | 1010.8 |
| 20260906063101 | 78 | 215 | 0.0 | 0.0 | 0.00 | 0.00 | 0.00 | 73 | 1010.9 |
| 20260906061632 | 77 | 215 | 0.0 | 0.0 | 0.00 | 0.00 | 0.00 | 73 | 1010.8 |
| 20260906060059 | 77 | 180 | 0.0 | 0.0 | 0.00 | 0.00 | 0.00 | 75 | 1011.0 |
| 20260906054557 | 77 | 132 | 0.0 | 0.9 | 0.00 | 0.00 | 0.00 | 73 | 1011.1 |
| 20260906053058 | 77 | 128 | 0.0 | 0.0 | 0.00 | 0.00 | 0.00 | 70 | 1010.9 |
| 20260906051553 | 78 | 128 | 0.0 | 0.0 | 0.00 | 0.00 | 0.00 | 67 | 1010.9 |
| 20260906050107 | 79 | 128 | 0.0 | 0.0 | 0.00 | 0.00 | 0.00 | 67 | 1010.9 |
| 20260906044549 | 79 | 128 | 0.0 | 0.0 | 0.00 | 0.00 | 0.00 | 67 | 1011.0 |
| 20260906043104 | 79 | 128 | 0.0 | 0.0 | 0.00 | 0.00 | 0.00 | 67 | 1010.9 |
| 20260906041651 | 80 | 128 | 0.0 | 0.0 | 0.00 | 0.00 | 0.00 | 66 | 1011.0 |
| 20260906040107 | 80 | 128 | 0.0 | 0.0 | 0.00 | 0.00 | 0.00 | 66 | 1011.0 |
| 20260906034548 | 81 | 128 | 0.0 | 0.0 | 0.00 | 0.00 | 0.00 | 66 | 1010.9 |
| 20260906033051 | 81 | 128 | 0.0 | 0.0 | 0.00 | 0.00 | 0.00 | 66 | 1010.8 |
| 20260906031547 | 81 | 128 | 0.0 | 0.0 | 0.00 | 0.00 | 0.00 | 64 | 1010.7 |
| 20260906030047 | 82 | 128 | 0.0 | 2.6 | 0.00 | 0.00 | 0.00 | 63 | 1010.5 |
| 20260906024545 | 82 | 139 | 0.0 | 0.0 | 0.00 | 0.00 | 0.00 | 62 | 1010.3 |
| 20260906023101 | 83 | 139 | 0.0 | 0.0 | 0.00 | 0.00 | 0.00 | 61 | 1010.2 |
| 20260906021545 | 83 | 139 | 0.0 | 0.0 | 0.00 | 0.00 | 0.00 | 60 | 1009.9 |
| 20260906020044 | 84 | 139 | 0.0 | 0.0 | 0.00 | 0.00 | 0.00 | 59 | 1009.8 |
| 20260906014555 | 84 | 139 | 0.0 | 0.0 | 0.00 | 0.00 | 0.00 | 58 | 1009.6 |
| 20260906013045 | 86 | 139 | 0.0 | 0.0 | 0.00 | 0.00 | 0.00 | 56 | 1009.7 |
| 20260906011552 | 87 | 139 | 0.0 | 0.0 | 0.00 | 0.00 | 0.00 | 55 | 1009.4 |
| 20260906010043 | 89 | 139 | 0.0 | 0.0 | 0.00 | 0.00 | 0.00 | 52 | 1009.3 |
| 20260906004542 | 91 | 139 | 0.0 | 0.0 | 0.00 | 0.00 | 0.00 | 50 | 1009.3 |
| 20260906003041 | 93 | 139 | 0.0 | 0.0 | 0.00 | 0.00 | 0.00 | 47 | 1009.3 |
| 20260906001542 | 95 | 139 | 0.0 | 0.0 | 0.00 | 0.00 | 0.00 | 44 | 1009.3 |
| 20260906000042 | 98 | 139 | 0.0 | 0.0 | 0.00 | 0.00 | 0.00 | 39 | 1009.3 |
| 20260905234551 | 101 | 139 | 0.0 | 0.9 | 0.00 | 0.00 | 0.00 | 36 | 1009.3 |
| 20260905233039 | 104 | 139 | 0.0 | 0.0 | 0.00 | 0.00 | 0.00 | 32 | 1009.2 |
| 20260905231539 | 107 | 159 | 0.0 | 1.7 | 0.00 | 0.00 | 0.00 | 31 | 1009.2 |
| 20260905230042 | 107 | 132 | 0.0 | 1.7 | 0.00 | 0.00 | 0.00 | 30 | 1009.2 |
| 20260905224539 | 108 | 215 | 0.0 | 1.7 | 0.00 | 0.00 | 0.00 | 29 | 1009.2 |
| 20260905223037 | 108 | 215 | 0.0 | 2.6 | 0.00 | 0.00 | 0.00 | 30 | 1009.2 |
| 20260905221535 | 107 | 101 | 0.0 | 2.6 | 0.00 | 0.00 | 0.00 | 30 | 1009.3 |
| 20260905220032 | 107 | 221 | 0.0 | 1.7 | 0.00 | 0.00 | 0.00 | 31 | 1009.4 |
| 20260905214531 | 105 | 116 | 0.9 | 4.3 | 0.00 | 0.00 | 0.00 | 33 | 1009.6 |
| 20260905213030 | 105 | 223 | 0.0 | 3.5 | 0.00 | 0.00 | 0.00 | 33 | 1009.6 |
| 20260905211528 | 105 | 228 | 0.0 | 4.3 | 0.00 | 0.00 | 0.00 | 32 | 1009.8 |
| 20260905210126 | 106 | 116 | 0.0 | 4.3 | 0.00 | 0.00 | 0.00 | 32 | 1010.1 |
| 20260905204524 | 104 | 229 | 0.0 | 2.6 | 0.00 | 0.00 | 0.00 | 34 | 1010.2 |
| 20260905203021 | 105 | 219 | 0.0 | 2.6 | 0.00 | 0.00 | 0.00 | 34 | 1010.6 |
| 20260905201521 | 106 | 141 | 0.0 | 3.5 | 0.00 | 0.00 | 0.00 | 33 | 1010.8 |
| 20260905200016 | 105 | 263 | 0.9 | 3.5 | 0.00 | 0.00 | 0.00 | 33 | 1011.0 |
| 20260905194513 | 102 | 183 | 0.0 | 6.1 | 0.00 | 0.00 | 0.00 | 35 | 1011.1 |
| 20260905193012 | 100 | 293 | 0.0 | 0.9 | 0.00 | 0.00 | 0.00 | 39 | 1011.3 |
| 20260905191513 | 102 | 132 | 0.0 | 5.2 | 0.00 | 0.00 | 0.00 | 37 | 1011.5 |
| 20260905190030 | 104 | 115 | 0.0 | 6.1 | 0.00 | 0.00 | 0.00 | 36 | 1011.8 |
| 20260905184510 | 104 | 79 | 1.7 | 8.7 | 0.00 | 0.00 | 0.00 | 36 | 1011.9 |